Time;durP1;ratioP1;P1;durP2;ratioP2;P2;SDS_P1;SDS_P2;PMS_P1;PMS_P2;Temp;Humidity;BMP_temperature;BMP_pressure;BME280_temperature;BME280_humidity;BME280_pressure;Samples;Min_cycle;Max_cycle;Signal;HPM_P1;HPM_P2
2021/05/25 00:00:01;;;;;;;4.17;2.60;;;12.20;99.90;;;;;;4935099;29;20507;-75
2021/05/25 00:02:38;;;;;;;3.20;2.90;;;12.10;99.90;;;;;;4936629;29;20435;-75
2021/05/25 00:05:08;;;;;;;3.23;2.93;;;12.10;99.90;;;;;;4936624;29;20472;-75
2021/05/25 00:07:36;;;;;;;3.30;3.00;;;12.10;99.90;;;;;;4936340;29;20475;-76
2021/05/25 00:10:05;;;;;;;3.23;2.93;;;12.00;99.90;;;;;;4935077;29;20471;-75
2021/05/25 00:12:34;;;;;;;3.07;2.83;;;12.00;99.90;;;;;;4936702;29;20550;-76
2021/05/25 00:15:06;;;;;;;3.37;3.07;;;11.90;99.90;;;;;;4935059;29;20452;-75
2021/05/25 00:17:33;;;;;;;3.10;2.60;;;11.90;99.90;;;;;;4935859;29;20459;-75
2021/05/25 00:20:01;;;;;;;3.63;3.33;;;11.80;99.90;;;;;;4936283;29;20558;-75
2021/05/25 00:22:28;;;;;;;3.43;3.13;;;11.80;99.90;;;;;;4942608;29;20971;-75
2021/05/25 00:24:57;;;;;;;4.40;4.00;;;11.80;99.90;;;;;;4917041;29;20540;-75
2021/05/25 00:27:24;;;;;;;4.67;3.10;;;11.70;99.90;;;;;;4917394;29;20449;-75
2021/05/25 00:29:53;;;;;;;3.10;2.80;;;11.70;99.90;;;;;;4915782;29;20515;-75
2021/05/25 00:32:21;;;;;;;3.80;3.15;;;11.60;99.90;;;;;;4916693;29;20486;-75
2021/05/25 00:34:48;;;;;;;3.80;3.40;;;11.70;99.90;;;;;;4917088;29;20201;-75
2021/05/25 00:37:16;;;;;;;3.40;2.83;;;11.70;99.90;;;;;;4915786;29;20457;-75
2021/05/25 00:39:44;;;;;;;2.80;2.60;;;11.60;99.90;;;;;;4916922;29;20456;-75
2021/05/25 00:42:11;;;;;;;3.17;2.88;;;11.60;99.90;;;;;;4925245;29;20457;-75
2021/05/25 00:44:39;;;;;;;2.77;2.57;;;11.60;99.90;;;;;;4934613;29;20204;-75
2021/05/25 00:47:07;;;;;;;2.70;2.50;;;11.60;99.90;;;;;;4936309;29;20436;-75
2021/05/25 00:49:35;;;;;;;2.87;2.57;;;11.50;99.90;;;;;;4934443;29;20514;-75
2021/05/25 00:52:03;;;;;;;2.57;2.27;;;11.50;99.90;;;;;;4936018;29;20435;-75
2021/05/25 00:54:31;;;;;;;2.57;2.10;;;11.50;99.90;;;;;;4934488;29;20452;-75
2021/05/25 00:56:59;;;;;;;3.23;2.50;;;11.40;99.90;;;;;;4935745;29;20471;-75
2021/05/25 00:59:28;;;;;;;4.07;2.40;;;11.40;99.90;;;;;;4934481;29;20575;-75
2021/05/25 01:01:55;;;;;;;3.83;2.53;;;11.40;99.90;;;;;;4933940;29;20511;-75
2021/05/25 01:04:24;;;;;;;2.87;2.67;;;11.30;99.90;;;;;;4934395;29;20535;-75
2021/05/25 01:06:52;;;;;;;2.53;2.33;;;11.30;99.90;;;;;;4935656;29;20475;-75
2021/05/25 01:09:19;;;;;;;2.33;2.13;;;11.30;99.90;;;;;;4934564;29;20472;-75
2021/05/25 01:11:47;;;;;;;3.87;2.90;;;11.30;99.90;;;;;;4935865;29;20518;-75
2021/05/25 01:14:15;;;;;;;2.83;2.63;;;11.20;99.90;;;;;;4934326;29;20448;-75
2021/05/25 01:16:42;;;;;;;3.20;2.90;;;11.20;99.90;;;;;;4934282;29;20921;-75
2021/05/25 01:19:10;;;;;;;3.80;3.10;;;11.20;99.90;;;;;;4934234;29;20459;-75
2021/05/25 01:21:39;;;;;;;3.80;3.50;;;11.20;99.90;;;;;;4937137;29;20479;-75
2021/05/25 01:24:07;;;;;;;2.70;2.50;;;11.20;99.90;;;;;;4937997;29;20475;-75
2021/05/25 01:26:35;;;;;;;3.23;2.80;;;11.20;99.90;;;;;;4937840;29;20910;-75
2021/05/25 01:29:03;;;;;;;3.60;3.30;;;11.20;99.90;;;;;;4953790;29;20569;-75
2021/05/25 01:31:31;;;;;;;3.30;3.10;;;11.20;99.90;;;;;;4937473;29;20961;-75
2021/05/25 01:33:59;;;;;;;3.43;3.00;;;11.20;99.90;;;;;;4939025;29;20908;-75
2021/05/25 01:36:26;;;;;;;3.77;2.87;;;11.20;99.90;;;;;;4946313;29;20452;-75
2021/05/25 01:38:55;;;;;;;4.10;3.20;;;11.20;99.90;;;;;;4939221;29;20783;-75
2021/05/25 01:41:22;;;;;;;3.40;3.10;;;11.20;99.90;;;;;;4938931;29;20538;-75
2021/05/25 01:43:50;;;;;;;2.80;2.60;;;11.20;99.90;;;;;;4938914;29;20490;-75
2021/05/25 01:46:18;;;;;;;2.87;2.67;;;11.20;99.90;;;;;;4938995;29;20559;-75
2021/05/25 01:48:49;;;;;;;2.53;2.33;;;11.20;99.90;;;;;;4938662;29;20907;-75
2021/05/25 01:51:16;;;;;;;2.70;2.50;;;11.20;99.90;;;;;;4938766;29;20845;-75
2021/05/25 01:53:44;;;;;;;2.90;2.60;;;11.20;99.90;;;;;;4938840;29;20449;-75
2021/05/25 01:56:12;;;;;;;2.10;1.90;;;11.20;99.90;;;;;;4938253;29;20223;-75
2021/05/25 01:58:40;;;;;;;2.30;2.10;;;11.20;99.90;;;;;;4938580;29;20464;-75
2021/05/25 02:01:10;;;;;;;1.77;1.67;;;11.20;99.90;;;;;;4938505;29;20547;-76
2021/05/25 02:03:40;;;;;;;1.90;1.70;;;11.20;99.90;;;;;;4936948;29;20457;-75
2021/05/25 02:06:10;;;;;;;2.43;2.10;;;11.20;99.90;;;;;;4937171;29;20259;-75
2021/05/25 02:08:39;;;;;;;1.83;1.33;;;11.20;99.90;;;;;;4938590;29;20451;-76
2021/05/25 02:11:08;;;;;;;2.63;2.00;;;11.20;99.90;;;;;;4938263;29;21078;-75
2021/05/25 02:13:39;;;;;;;2.00;1.80;;;11.20;99.90;;;;;;4938393;29;20440;-75
2021/05/25 02:16:08;;;;;;;2.87;2.67;;;11.20;99.90;;;;;;4938672;29;20437;-75
2021/05/25 02:18:38;;;;;;;2.80;2.37;;;11.20;99.90;;;;;;4937137;29;20487;-75
2021/05/25 02:21:07;;;;;;;3.43;2.90;;;11.10;99.90;;;;;;4937023;29;20503;-75
2021/05/25 02:23:35;;;;;;;3.33;3.00;;;11.10;99.90;;;;;;4938289;29;20809;-75
2021/05/25 02:26:03;;;;;;;3.20;2.90;;;11.10;99.90;;;;;;4937736;29;21009;-75
2021/05/25 02:28:31;;;;;;;3.57;3.27;;;11.10;99.90;;;;;;4937272;29;20462;-75
2021/05/25 02:31:00;;;;;;;3.77;3.47;;;11.10;99.90;;;;;;4938093;29;20492;-75
2021/05/25 02:33:28;;;;;;;3.30;3.00;;;11.10;99.90;;;;;;4952647;28;20538;-75
2021/05/25 02:35:56;;;;;;;3.37;3.07;;;11.00;99.90;;;;;;4952686;29;20995;-75
2021/05/25 02:38:26;;;;;;;4.00;3.70;;;11.00;99.90;;;;;;4937846;29;20448;-75
2021/05/25 02:40:55;;;;;;;3.10;2.90;;;11.00;99.90;;;;;;4936596;29;21001;-75
2021/05/25 02:43:24;;;;;;;4.30;3.57;;;11.00;99.90;;;;;;4937810;29;20503;-75
2021/05/25 02:45:53;;;;;;;3.90;3.50;;;11.00;99.90;;;;;;4937646;29;20484;-75
2021/05/25 02:48:23;;;;;;;3.20;3.00;;;10.90;99.90;;;;;;4937853;29;20941;-76
2021/05/25 02:50:50;;;;;;;3.70;3.13;;;10.90;99.90;;;;;;4936363;29;20519;-75
2021/05/25 02:53:19;;;;;;;3.50;3.20;;;10.90;99.90;;;;;;4937693;29;20495;-75
2021/05/25 02:55:47;;;;;;;3.73;3.40;;;10.90;99.90;;;;;;4938108;29;20523;-75
2021/05/25 02:58:15;;;;;;;4.93;3.10;;;10.90;99.90;;;;;;4937526;29;21021;-75
2021/05/25 03:00:44;;;;;;;3.63;3.10;;;10.90;99.90;;;;;;4936117;29;20476;-75
2021/05/25 03:03:12;;;;;;;3.50;3.20;;;10.90;99.90;;;;;;4937386;29;20811;-75
2021/05/25 03:05:42;;;;;;;4.10;3.70;;;10.80;99.90;;;;;;4937539;29;20526;-75
2021/05/25 03:08:12;;;;;;;4.43;4.03;;;10.80;99.90;;;;;;4935923;29;20985;-75
2021/05/25 03:10:43;;;;;;;4.20;3.80;;;10.80;99.90;;;;;;4937211;29;20466;-75
2021/05/25 03:13:11;;;;;;;4.70;4.20;;;10.80;99.90;;;;;;4933418;29;20532;-75
2021/05/25 03:15:40;;;;;;;3.80;3.40;;;10.80;99.90;;;;;;4937168;29;20282;-75
2021/05/25 03:18:09;;;;;;;4.03;3.70;;;10.80;99.90;;;;;;4937466;29;20451;-76
2021/05/25 03:20:37;;;;;;;4.40;4.00;;;10.80;99.90;;;;;;4936346;29;20555;-75
2021/05/25 03:23:07;;;;;;;4.40;4.00;;;10.80;99.90;;;;;;4936712;29;20504;-75
2021/05/25 03:25:35;;;;;;;6.17;4.23;;;10.80;99.90;;;;;;4937487;29;20204;-75
2021/05/25 03:28:03;;;;;;;3.80;3.47;;;10.80;99.90;;;;;;4935685;29;20440;-75
2021/05/25 03:30:32;;;;;;;4.10;3.70;;;10.80;99.90;;;;;;4936842;29;20467;-75
2021/05/25 03:33:00;;;;;;;5.40;3.97;;;10.70;99.90;;;;;;4936555;29;20490;-75
2021/05/25 03:35:28;;;;;;;4.77;4.33;;;10.70;99.90;;;;;;4936869;29;20510;-75
2021/05/25 03:37:56;;;;;;;6.00;5.00;;;10.70;99.90;;;;;;4937037;29;20831;-75
2021/05/25 03:40:25;;;;;;;4.93;4.43;;;10.60;99.90;;;;;;4937125;29;20460;-75
2021/05/25 03:42:54;;;;;;;4.47;4.10;;;10.60;99.90;;;;;;4935475;29;20470;-75
2021/05/25 03:45:23;;;;;;;5.73;5.23;;;10.60;99.90;;;;;;4934802;29;20550;-76
2021/05/25 03:47:51;;;;;;;8.80;5.03;;;10.70;99.90;;;;;;4936144;29;20481;-75
2021/05/25 03:50:21;;;;;;;5.93;5.33;;;10.60;99.90;;;;;;4918963;29;20532;-75
2021/05/25 03:52:53;;;;;;;5.07;4.67;;;10.70;99.90;;;;;;4936451;29;20452;-75
2021/05/25 03:55:31;;;;;;;7.23;6.53;;;10.70;99.90;;;;;;4936991;29;20503;-75
2021/05/25 04:00:53;;;;;;;6.47;5.87;;;10.70;99.90;;;;;;4921017;29;20464;-75
2021/05/25 04:03:20;;;;;;;6.13;5.63;;;10.70;99.90;;;;;;4935909;29;20448;-76
2021/05/25 04:05:49;;;;;;;8.47;7.57;;;10.70;99.90;;;;;;4934880;29;20476;-75
2021/05/25 04:08:17;;;;;;;6.40;5.90;;;10.70;99.90;;;;;;4936477;29;20534;-76
2021/05/25 04:10:45;;;;;;;5.93;5.43;;;10.70;99.90;;;;;;4935039;29;20499;-76
2021/05/25 04:13:15;;;;;;;6.93;5.90;;;10.70;99.90;;;;;;4935069;29;20488;-75
2021/05/25 04:15:44;;;;;;;6.87;6.27;;;10.70;99.90;;;;;;4936524;29;20455;-76
2021/05/25 04:18:11;;;;;;;7.17;6.47;;;10.70;99.90;;;;;;4936495;29;20503;-76
2021/05/25 04:20:39;;;;;;;7.50;6.80;;;10.70;99.90;;;;;;4936218;29;20554;-76
2021/05/25 04:23:07;;;;;;;7.83;7.13;;;10.70;99.90;;;;;;4936226;29;20440;-76
2021/05/25 04:25:35;;;;;;;7.17;6.57;;;10.70;99.90;;;;;;4932738;29;20456;-76
2021/05/25 04:28:03;;;;;;;8.67;7.90;;;10.70;99.90;;;;;;4936101;29;20499;-75
2021/05/25 04:30:32;;;;;;;7.40;6.80;;;10.70;99.90;;;;;;4936001;29;20479;-75
2021/05/25 04:33:00;;;;;;;8.77;7.80;;;10.70;99.90;;;;;;4950809;29;20463;-75
2021/05/25 04:35:28;;;;;;;8.87;8.10;;;10.70;99.90;;;;;;4934725;29;20973;-75
2021/05/25 04:37:57;;;;;;;8.23;7.53;;;10.70;99.90;;;;;;4936270;29;21020;-75
2021/05/25 04:40:25;;;;;;;8.40;7.70;;;10.70;99.90;;;;;;4935935;29;20452;-75
2021/05/25 04:42:53;;;;;;;8.60;7.80;;;10.70;99.90;;;;;;4930658;29;20483;-75
2021/05/25 04:45:21;;;;;;;9.27;8.48;;;10.70;99.90;;;;;;4933912;29;20463;-76
2021/05/25 04:47:50;;;;;;;9.20;8.37;;;10.80;99.90;;;;;;4916836;29;20215;-76
2021/05/25 04:50:19;;;;;;;9.80;9.00;;;10.80;99.90;;;;;;4916855;29;20467;-76
2021/05/25 04:52:47;;;;;;;8.73;7.93;;;10.80;99.90;;;;;;4915734;29;20863;-75
2021/05/25 04:55:17;;;;;;;13.10;8.43;;;10.70;99.90;;;;;;4915594;29;20504;-76
2021/05/25 04:57:49;;;;;;;9.60;8.60;;;10.70;99.90;;;;;;4919183;29;20451;-76
2021/05/25 05:00:22;;;;;;;10.03;9.23;;;10.70;99.90;;;;;;4919864;29;20887;-76
2021/05/25 05:02:51;;;;;;;9.47;8.60;;;10.70;99.90;;;;;;4936023;29;20463;-76
2021/05/25 05:05:19;;;;;;;9.83;8.83;;;10.70;99.90;;;;;;4939263;29;20528;-76
2021/05/25 05:07:47;;;;;;;8.90;8.10;;;10.70;99.90;;;;;;4936198;29;20562;-76
2021/05/25 05:10:16;;;;;;;8.87;8.13;;;10.70;99.90;;;;;;4939277;29;20463;-76
2021/05/25 05:12:44;;;;;;;9.37;8.57;;;10.70;99.90;;;;;;4939815;29;20878;-76
2021/05/25 05:15:13;;;;;;;8.27;7.53;;;10.80;99.90;;;;;;4938171;29;20807;-76
2021/05/25 05:17:41;;;;;;;8.40;7.70;;;10.80;99.90;;;;;;4938083;29;20648;-76
2021/05/25 05:20:12;;;;;;;7.50;6.90;;;10.80;99.90;;;;;;4954048;29;20496;-76
2021/05/25 05:22:40;;;;;;;6.67;6.07;;;10.80;99.90;;;;;;4954324;29;20444;-76
2021/05/25 05:25:10;;;;;;;6.50;5.90;;;10.90;99.90;;;;;;4938531;29;20498;-76
2021/05/25 05:27:39;;;;;;;5.80;5.30;;;10.90;99.90;;;;;;4939785;29;20558;-76
2021/05/25 05:30:09;;;;;;;5.50;5.00;;;10.90;99.90;;;;;;4939216;29;20515;-76
2021/05/25 05:32:37;;;;;;;5.10;4.70;;;11.00;99.90;;;;;;4939305;29;20461;-76
2021/05/25 05:35:07;;;;;;;4.50;4.10;;;11.00;99.90;;;;;;4937956;29;20819;-76
2021/05/25 05:37:36;;;;;;;5.67;5.17;;;11.00;99.90;;;;;;4939097;29;20958;-76
2021/05/25 05:40:05;;;;;;;6.83;6.13;;;11.10;99.90;;;;;;4939783;29;20562;-75
2021/05/25 05:42:40;;;;;;;6.20;5.70;;;11.10;99.90;;;;;;4938209;29;20877;-76
2021/05/25 05:45:08;;;;;;;6.80;6.20;;;11.10;99.90;;;;;;4937765;29;20483;-76
2021/05/25 05:47:36;;;;;;;6.60;6.00;;;11.10;99.90;;;;;;4953576;29;20856;-75
2021/05/25 05:50:10;;;;;;;6.30;5.80;;;11.20;99.90;;;;;;4937640;29;20467;-76
2021/05/25 05:52:39;;;;;;;6.90;5.80;;;11.20;99.90;;;;;;4939141;29;20436;-76
2021/05/25 05:55:08;;;;;;;6.53;5.80;;;11.20;99.90;;;;;;4939082;29;20491;-75
2021/05/25 05:57:37;;;;;;;7.33;6.67;;;11.20;99.90;;;;;;4937440;29;20858;-76
2021/05/25 06:00:07;;;;;;;6.70;6.10;;;11.20;99.90;;;;;;4938599;29;20969;-76
2021/05/25 06:02:38;;;;;;;7.95;7.25;;;11.20;99.90;;;;;;4938303;29;20505;-76
2021/05/25 06:05:07;;;;;;;6.83;6.20;;;11.30;99.90;;;;;;4938972;29;20251;-75
2021/05/25 06:07:35;;;;;;;8.43;6.77;;;11.20;99.90;;;;;;4936560;29;20479;-76
2021/05/25 06:10:05;;;;;;;7.63;6.83;;;11.30;99.90;;;;;;4937323;29;20562;-75
2021/05/25 06:12:33;;;;;;;8.90;8.10;;;11.30;99.90;;;;;;4937716;29;20867;-76
2021/05/25 06:15:01;;;;;;;8.20;7.40;;;11.30;99.90;;;;;;4938416;29;20232;-76
2021/05/25 06:17:29;;;;;;;9.27;7.20;;;11.20;99.90;;;;;;4938386;29;20451;-75
2021/05/25 06:19:57;;;;;;;8.70;7.90;;;11.20;99.90;;;;;;4937084;29;20570;-76
2021/05/25 06:22:24;;;;;;;7.67;6.97;;;11.20;99.90;;;;;;4952987;29;20447;-75
2021/05/25 06:24:52;;;;;;;8.60;7.80;;;11.30;99.90;;;;;;4938454;29;20507;-75
2021/05/25 06:27:20;;;;;;;7.27;6.60;;;11.30;99.90;;;;;;4938202;29;20472;-75
2021/05/25 06:29:48;;;;;;;6.73;6.03;;;11.30;99.90;;;;;;4936795;29;20475;-75
2021/05/25 06:32:15;;;;;;;8.10;7.30;;;11.30;99.90;;;;;;4952817;29;20454;-75
2021/05/25 06:34:43;;;;;;;7.70;7.00;;;11.40;99.90;;;;;;4937087;29;20960;-75
2021/05/25 06:37:11;;;;;;;9.80;7.43;;;11.40;99.90;;;;;;4938093;29;20432;-76
2021/05/25 06:39:38;;;;;;;8.30;7.60;;;11.40;99.90;;;;;;4936609;29;20621;-75
2021/05/25 06:42:07;;;;;;;9.37;8.57;;;11.30;99.90;;;;;;4936661;29;20535;-75
2021/05/25 06:44:36;;;;;;;9.53;8.63;;;11.30;99.90;;;;;;4952880;29;21013;-75
2021/05/25 06:47:04;;;;;;;9.13;8.33;;;11.30;99.90;;;;;;4952602;29;20854;-76
2021/05/25 06:49:32;;;;;;;8.90;8.07;;;11.40;99.90;;;;;;4938141;29;20877;-75
2021/05/25 06:51:59;;;;;;;9.90;9.00;;;11.50;99.90;;;;;;4936888;29;20448;-75
2021/05/25 06:54:28;;;;;;;9.73;8.70;;;11.60;99.90;;;;;;4937703;29;20448;-75
2021/05/25 06:56:56;;;;;;;10.27;9.40;;;11.70;99.90;;;;;;4936438;29;20456;-75
2021/05/25 06:59:24;;;;;;;10.13;9.13;;;11.70;99.90;;;;;;4937543;29;20539;-75
2021/05/25 07:01:53;;;;;;;8.63;7.93;;;11.70;99.90;;;;;;4937485;29;20452;-75
2021/05/25 07:04:21;;;;;;;9.70;8.70;;;11.70;99.90;;;;;;4936237;29;20498;-76
2021/05/25 07:06:51;;;;;;;10.10;9.07;;;11.80;99.90;;;;;;4936060;29;20452;-75
2021/05/25 07:09:19;;;;;;;10.30;9.30;;;11.80;99.90;;;;;;4937460;29;20482;-75
2021/05/25 07:11:47;;;;;;;9.00;8.20;;;11.80;99.90;;;;;;4936138;29;20456;-75
2021/05/25 07:14:15;;;;;;;7.90;7.20;;;11.80;99.90;;;;;;4952123;29;20448;-75
2021/05/25 07:16:42;;;;;;;7.93;7.20;;;11.90;99.90;;;;;;4937576;29;20509;-75
2021/05/25 07:19:11;;;;;;;8.20;7.40;;;11.90;99.90;;;;;;4935181;29;20472;-75
2021/05/25 07:21:39;;;;;;;7.67;7.00;;;12.00;99.90;;;;;;4937476;29;20448;-75
2021/05/25 07:24:07;;;;;;;8.13;7.32;;;12.10;99.90;;;;;;4937043;29;20531;-75
2021/05/25 07:26:35;;;;;;;7.40;6.70;;;12.20;99.90;;;;;;4937655;29;20275;-75
2021/05/25 07:29:03;;;;;;;7.77;7.10;;;12.30;99.90;;;;;;4936935;29;21072;-75
2021/05/25 07:31:31;;;;;;;10.10;7.53;;;12.20;99.90;;;;;;4936056;29;20991;-75
2021/05/25 07:33:58;;;;;;;7.70;7.10;;;12.20;99.90;;;;;;4952711;29;20954;-75
2021/05/25 07:36:27;;;;;;;7.23;6.60;;;12.20;99.90;;;;;;4936984;29;20554;-75
2021/05/25 07:38:55;;;;;;;7.33;6.63;;;12.10;99.90;;;;;;4935601;29;20452;-75
2021/05/25 07:41:23;;;;;;;8.47;7.60;;;12.00;99.90;;;;;;4935547;29;20799;-75
2021/05/25 07:43:51;;;;;;;9.20;6.07;;;12.00;99.90;;;;;;4937025;29;20459;-75
2021/05/25 07:46:22;;;;;;;8.13;7.20;;;11.90;99.90;;;;;;4937052;29;20490;-75
2021/05/25 07:48:50;;;;;;;8.00;7.20;;;11.90;99.90;;;;;;4937175;29;20556;-75
2021/05/25 07:51:18;;;;;;;9.60;6.87;;;12.00;99.90;;;;;;4936653;29;20479;-75
2021/05/25 07:53:46;;;;;;;6.70;6.10;;;12.10;99.90;;;;;;4935465;29;20534;-76
2021/05/25 07:56:14;;;;;;;8.17;5.70;;;12.20;99.90;;;;;;4936676;29;20495;-77
2021/05/25 07:58:42;;;;;;;18.67;10.03;;;12.30;99.90;;;;;;4935420;29;20448;-76
2021/05/25 08:01:10;;;;;;;6.27;4.20;;;12.60;99.90;;;;;;4935343;29;20545;-77
2021/05/25 08:03:38;;;;;;;7.00;3.30;;;12.90;99.90;;;;;;4936742;29;20488;-77
2021/05/25 08:06:06;;;;;;;4.80;3.40;;;13.10;99.90;;;;;;4935189;29;20507;-77
2021/05/25 08:08:34;;;;;;;3.30;2.80;;;13.20;99.90;;;;;;4936307;29;20878;-77
2021/05/25 08:11:02;;;;;;;3.50;2.83;;;13.40;99.90;;;;;;4935400;29;20571;-77
2021/05/25 08:13:30;;;;;;;10.03;4.50;;;13.60;99.90;;;;;;4936660;29;21002;-77
2021/05/25 08:15:58;;;;;;;3.53;3.20;;;13.70;99.90;;;;;;4935102;29;20448;-77
2021/05/25 08:18:40;;;;;;;5.53;2.93;;;13.70;99.90;;;;;;4951052;29;20511;-77
2021/05/25 08:21:08;;;;;;;4.63;3.17;;;13.90;99.90;;;;;;4951009;29;20514;-77
2021/05/25 08:23:35;;;;;;;4.43;4.03;;;14.00;99.90;;;;;;4936596;29;20479;-77
2021/05/25 08:26:05;;;;;;;4.97;3.00;;;14.10;99.90;;;;;;4935181;29;20798;-77
2021/05/25 08:28:33;;;;;;;8.73;3.27;;;14.00;99.90;;;;;;4950888;29;20566;-77
2021/05/25 08:31:01;;;;;;;4.40;3.97;;;13.90;99.90;;;;;;4936866;29;20463;-76
2021/05/25 08:33:28;;;;;;;5.10;4.23;;;13.90;99.90;;;;;;4936320;29;20437;-77
2021/05/25 08:35:57;;;;;;;6.53;3.93;;;14.10;99.90;;;;;;4935206;29;20645;-77
2021/05/25 08:38:25;;;;;;;5.33;4.13;;;14.30;99.90;;;;;;4936156;29;21000;-77
2021/05/25 08:40:54;;;;;;;5.57;3.70;;;14.50;99.90;;;;;;4938059;29;20458;-78
2021/05/25 08:43:23;;;;;;;5.70;3.50;;;14.80;99.90;;;;;;4937645;29;20932;-77
2021/05/25 08:45:52;;;;;;;5.20;3.00;;;15.00;99.90;;;;;;4935605;29;20439;-77
2021/05/25 08:48:20;;;;;;;3.70;2.97;;;15.10;99.90;;;;;;4936353;29;20641;-77
2021/05/25 08:50:53;;;;;;;6.80;2.90;;;15.10;99.90;;;;;;4936738;29;20446;-77
2021/05/25 08:53:21;;;;;;;3.30;2.40;;;14.90;99.90;;;;;;4936400;29;20459;-77
2021/05/25 08:55:50;;;;;;;5.18;2.92;;;14.70;99.90;;;;;;4936053;29;20453;-77
2021/05/25 08:58:19;;;;;;;3.67;2.80;;;14.70;99.90;;;;;;4937612;29;20204;-77
2021/05/25 09:00:50;;;;;;;2.50;2.10;;;14.60;99.90;;;;;;4936659;29;20466;-77
2021/05/25 09:03:19;;;;;;;3.47;2.57;;;14.70;99.90;;;;;;4935475;29;20427;-77
2021/05/25 09:05:57;;;;;;;4.83;3.40;;;14.70;99.90;;;;;;4935007;29;20515;-77
2021/05/25 09:08:25;;;;;;;3.57;2.97;;;14.80;99.90;;;;;;4950620;29;20458;-77
2021/05/25 09:10:59;;;;;;;3.10;2.33;;;14.90;99.90;;;;;;4934956;29;20467;-77
2021/05/25 09:13:27;;;;;;;4.00;2.33;;;15.00;99.90;;;;;;4936651;29;20403;-77
2021/05/25 09:15:58;;;;;;;4.47;2.43;;;15.00;99.90;;;;;;4936386;29;20452;-77
2021/05/25 09:18:29;;;;;;;3.70;2.43;;;14.90;99.90;;;;;;4935928;29;20791;-77
2021/05/25 09:20:59;;;;;;;4.17;2.40;;;14.90;99.90;;;;;;4934386;29;20538;-77
2021/05/25 09:23:45;;;;;;;4.50;3.17;;;15.00;99.90;;;;;;4935769;29;20423;-77
2021/05/25 09:26:16;;;;;;;3.17;2.40;;;15.00;99.80;;;;;;4935018;29;20456;-77
2021/05/25 09:28:57;;;;;;;3.63;2.77;;;15.00;99.70;;;;;;4936253;29;20471;-77
2021/05/25 09:31:27;;;;;;;3.30;2.50;;;15.00;99.40;;;;;;4934431;29;20799;-77
2021/05/25 09:34:08;;;;;;;2.57;2.23;;;15.00;99.40;;;;;;4950394;29;20490;-77
2021/05/25 09:36:59;;;;;;;3.67;2.07;;;15.00;99.30;;;;;;4934736;29;20792;-76
2021/05/25 09:39:28;;;;;;;3.80;2.03;;;15.00;99.10;;;;;;4936090;29;21008;-77
2021/05/25 09:41:57;;;;;;;2.47;2.00;;;15.00;99.10;;;;;;4936711;29;20498;-77
2021/05/25 09:44:24;;;;;;;3.07;2.23;;;15.00;98.80;;;;;;4938515;29;20550;-77
2021/05/25 09:46:53;;;;;;;3.90;2.07;;;15.00;98.60;;;;;;4938535;29;20857;-77
2021/05/25 09:49:21;;;;;;;4.63;2.63;;;15.00;98.60;;;;;;4938007;29;20963;-77
2021/05/25 09:52:02;;;;;;;4.10;2.73;;;15.20;98.60;;;;;;4955167;29;20459;-78
2021/05/25 09:54:31;;;;;;;2.40;2.20;;;15.30;98.70;;;;;;4939721;29;20422;-77
2021/05/25 09:57:00;;;;;;;4.43;2.50;;;15.40;98.70;;;;;;4939185;29;20555;-77
2021/05/25 09:59:30;;;;;;;2.57;2.37;;;15.40;98.70;;;;;;4940616;29;20490;-77
2021/05/25 10:02:15;;;;;;;3.50;2.60;;;15.40;98.50;;;;;;4939088;29;20469;-78
2021/05/25 10:04:59;;;;;;;3.00;2.70;;;15.30;98.30;;;;;;4955443;29;20426;-77
2021/05/25 10:07:27;;;;;;;2.70;2.50;;;15.30;98.30;;;;;;4939305;29;20482;-78
2021/05/25 10:09:56;;;;;;;4.37;2.83;;;15.30;98.30;;;;;;4938648;29;21072;-77
2021/05/25 10:12:25;;;;;;;3.23;2.80;;;15.30;98.30;;;;;;4939313;29;20482;-78
2021/05/25 10:14:53;;;;;;;3.30;2.80;;;15.40;98.40;;;;;;4939266;29;20464;-78
2021/05/25 10:17:32;;;;;;;3.53;2.53;;;15.70;97.90;;;;;;4955697;29;20293;-78
2021/05/25 10:20:00;;;;;;;4.10;3.20;;;15.90;98.00;;;;;;4941350;29;20455;-78
2021/05/25 10:22:28;;;;;;;4.00;2.63;;;16.00;97.90;;;;;;4939075;29;20456;-78
2021/05/25 10:24:57;;;;;;;3.93;3.00;;;16.20;97.80;;;;;;4940923;29;20527;-78
2021/05/25 10:27:28;;;;;;;3.13;2.63;;;16.30;97.70;;;;;;4943548;29;20443;-78
2021/05/25 10:29:56;;;;;;;3.47;2.40;;;16.50;97.60;;;;;;4941930;29;20572;-78
2021/05/25 10:32:26;;;;;;;4.23;2.70;;;16.50;97.40;;;;;;4939334;29;20542;-78
2021/05/25 10:34:55;;;;;;;4.10;2.60;;;16.60;97.30;;;;;;4938602;29;20483;-78
2021/05/25 10:37:23;;;;;;;4.20;3.47;;;16.60;97.10;;;;;;4939762;29;20478;-78
2021/05/25 10:39:54;;;;;;;4.20;3.80;;;16.60;97.00;;;;;;4938529;29;20451;-78
2021/05/25 10:42:28;;;;;;;3.20;2.73;;;16.60;97.00;;;;;;4938297;29;20502;-77
2021/05/25 10:45:17;;;;;;;3.43;2.53;;;16.60;96.90;;;;;;4939577;29;20420;-77
2021/05/25 10:48:00;;;;;;;5.97;2.50;;;16.60;96.90;;;;;;4939424;29;20488;-78
2021/05/25 10:50:32;;;;;;;3.10;2.77;;;16.60;96.70;;;;;;4937630;29;20846;-77
2021/05/25 10:53:26;;;;;;;3.53;3.10;;;16.70;96.60;;;;;;4936857;29;20448;-77
2021/05/25 10:55:55;;;;;;;3.83;2.90;;;16.70;96.20;;;;;;4937830;29;20467;-77
2021/05/25 10:58:32;;;;;;;4.23;3.40;;;16.70;96.30;;;;;;4937472;29;20973;-78
2021/05/25 11:01:01;;;;;;;4.10;3.37;;;16.70;96.10;;;;;;4938594;29;20522;-77
2021/05/25 11:03:30;;;;;;;4.20;3.00;;;16.70;96.00;;;;;;4937693;29;20891;-77
2021/05/25 11:05:59;;;;;;;3.37;2.77;;;16.70;95.80;;;;;;4937213;29;20899;-77
2021/05/25 11:08:31;;;;;;;3.50;3.20;;;16.70;95.80;;;;;;4937619;29;20485;-78
2021/05/25 11:11:04;;;;;;;4.73;3.27;;;16.70;95.80;;;;;;4937612;29;21005;-78
2021/05/25 11:13:38;;;;;;;3.40;3.10;;;16.70;95.80;;;;;;4937315;29;20837;-77
2021/05/25 11:16:10;;;;;;;3.70;2.93;;;16.70;95.60;;;;;;4936929;29;20559;-77
2021/05/25 11:18:42;;;;;;;4.70;3.25;;;16.60;95.50;;;;;;4935452;29;20949;-77
2021/05/25 11:21:31;;;;;;;2.90;2.50;;;16.70;94.30;;;;;;4936720;29;20286;-77
2021/05/25 11:23:59;;;;;;;2.87;2.67;;;16.60;94.50;;;;;;4936437;29;20519;-77
2021/05/25 11:26:57;;;;;;;3.47;2.23;;;16.60;94.70;;;;;;4936465;29;20563;-77
2021/05/25 11:29:27;;;;;;;4.27;2.70;;;16.50;94.60;;;;;;4951887;29;20484;-77
2021/05/25 11:31:58;;;;;;;3.93;2.50;;;16.40;94.60;;;;;;4937807;29;20424;-77
2021/05/25 11:34:28;;;;;;;3.60;2.70;;;16.40;94.60;;;;;;4936075;29;21024;-77
2021/05/25 11:36:58;;;;;;;2.93;2.70;;;16.50;94.60;;;;;;4937724;29;20507;-77
2021/05/25 11:39:26;;;;;;;3.80;3.17;;;16.60;94.70;;;;;;4937514;29;20475;-77
2021/05/25 11:41:54;;;;;;;3.30;3.00;;;16.60;94.70;;;;;;4936110;29;20543;-77
2021/05/25 11:44:31;;;;;;;3.57;3.27;;;16.70;94.70;;;;;;4936105;29;20495;-77
2021/05/25 11:46:58;;;;;;;4.23;3.20;;;16.70;94.60;;;;;;4937441;29;20523;-77
2021/05/25 11:49:32;;;;;;;5.03;4.30;;;16.60;94.30;;;;;;4935794;29;20498;-78
2021/05/25 11:52:15;;;;;;;3.50;3.20;;;16.50;94.10;;;;;;4935715;29;20459;-77
2021/05/25 11:54:44;;;;;;;3.43;3.13;;;16.30;94.00;;;;;;4935426;29;20475;-77
2021/05/25 11:57:27;;;;;;;3.27;2.93;;;16.10;94.10;;;;;;4935713;29;20479;-77
2021/05/25 11:59:56;;;;;;;2.60;2.40;;;15.90;94.50;;;;;;4938417;29;20463;-77
2021/05/25 12:02:25;;;;;;;3.53;3.17;;;15.60;94.70;;;;;;4938326;29;20539;-77
2021/05/25 12:05:15;;;;;;;3.63;3.20;;;15.50;95.10;;;;;;4935650;29;20460;-77
2021/05/25 12:07:45;;;;;;;4.50;3.83;;;15.40;95.40;;;;;;4952519;29;20484;-77
2021/05/25 12:10:15;;;;;;;5.37;4.70;;;15.40;95.70;;;;;;4952167;29;20491;-77
2021/05/25 12:12:45;;;;;;;6.13;4.17;;;15.60;96.20;;;;;;4935649;29;20434;-77
2021/05/25 12:15:18;;;;;;;4.93;4.47;;;15.70;96.60;;;;;;4937441;29;20478;-77
2021/05/25 12:17:48;;;;;;;5.27;4.77;;;15.90;97.20;;;;;;4937583;29;20409;-77
2021/05/25 12:20:18;;;;;;;4.97;4.00;;;16.10;97.00;;;;;;4936408;29;20960;-77
2021/05/25 12:22:52;;;;;;;3.97;3.50;;;16.20;97.00;;;;;;4952417;29;21003;-77
2021/05/25 12:25:28;;;;;;;4.05;3.65;;;16.30;97.00;;;;;;4934827;29;20517;-77
2021/05/25 12:28:06;;;;;;;4.30;3.33;;;16.30;96.80;;;;;;4936608;29;20581;-77
2021/05/25 12:30:42;;;;;;;4.07;2.87;;;16.40;96.70;;;;;;4936603;29;20988;-77
2021/05/25 12:33:17;;;;;;;3.50;3.27;;;16.40;96.90;;;;;;4936851;29;20870;-77
2021/05/25 12:35:46;;;;;;;2.05;1.75;;;16.40;96.60;;;;;;4935921;29;20807;-77
2021/05/25 12:38:17;;;;;;;1.60;1.23;;;16.50;95.60;;;;;;4936317;29;20196;-77
2021/05/25 12:40:56;;;;;;;1.50;1.40;;;16.60;95.40;;;;;;4936016;29;20502;-77
2021/05/25 12:43:26;;;;;;;3.10;1.60;;;16.50;95.20;;;;;;4936018;29;20850;-77
2021/05/25 12:45:54;;;;;;;1.67;1.50;;;16.50;95.10;;;;;;4934673;29;20460;-77
2021/05/25 12:48:34;;;;;;;2.10;1.67;;;16.50;95.00;;;;;;4934703;29;20483;-77
2021/05/25 12:51:03;;;;;;;1.60;1.50;;;16.50;95.00;;;;;;4934669;29;20818;-76
2021/05/25 12:53:31;;;;;;;3.17;1.97;;;16.40;94.80;;;;;;4936120;29;20431;-76
2021/05/25 12:56:02;;;;;;;1.70;1.57;;;16.40;94.70;;;;;;4936071;29;20781;-76
2021/05/25 12:58:38;;;;;;;1.50;1.20;;;16.30;94.70;;;;;;4934602;29;20456;-76
2021/05/25 13:01:19;;;;;;;2.30;1.33;;;16.20;94.70;;;;;;4935889;29;20493;-76